Terminal Aerodrome Forecast
Issued by NWS Grand Junction, CO

Home | Current Version | Previous Version | Text Only | Print | Product List | Glossary On
Versions: 1 2 3 4 5 6 7 8 9 10 11 12 13 14 15 16 17 18 19 20 21
000
FTUS45 KGJT 240526
TAFGJT
TAF
KGJT 240526Z 2406/2506 30014KT P6SM SCT200
      TEMPO 2406/2408 27015G35KT
     FM240900 30004KT P6SM SCT200
     FM241100 21005KT P6SM FEW200
     FM241600 19005KT P6SM BKN150
     FM241900 22010KT P6SM OVC110
     FM242100 24014G26KT P6SM OVC090=

USA.gov is the U.S. government's official web portal to all federal, state and local government web resources and services.